createdAt,value
2019-05-21T00:01:54.909Z,5.70
2019-05-21T00:04:28.269Z,5.47
2019-05-21T00:06:55.985Z,6.30
2019-05-21T00:09:25.691Z,5.90
2019-05-21T00:11:55.384Z,5.80
2019-05-21T00:14:25.076Z,5.50
2019-05-21T00:16:54.927Z,5.57
2019-05-21T00:19:24.624Z,6.23
2019-05-21T00:21:54.328Z,6.17
2019-05-21T00:24:24.011Z,6.23
2019-05-21T00:26:53.759Z,6.70
2019-05-21T00:30:00.076Z,6.87
2019-05-21T00:33:06.098Z,7.00
2019-05-21T00:36:12.257Z,6.67
2019-05-21T00:39:18.094Z,6.70
2019-05-21T00:42:08.930Z,7.20
2019-05-21T00:44:43.470Z,6.73
2019-05-21T00:47:14.132Z,7.13
2019-05-21T00:49:43.876Z,7.40
2019-05-21T00:52:13.732Z,8.33
2019-05-21T00:54:43.549Z,8.43
2019-05-21T00:57:13.467Z,8.00
2019-05-21T00:59:43.255Z,8.40
2019-05-21T01:02:13.047Z,7.87
2019-05-21T01:04:42.788Z,7.87
2019-05-21T01:07:12.657Z,8.93
2019-05-21T01:09:42.408Z,8.37
2019-05-21T01:12:12.311Z,8.87
2019-05-21T01:14:42.101Z,9.77
2019-05-21T01:17:11.991Z,10.50
2019-05-21T01:19:41.730Z,11.07
2019-05-21T01:22:11.583Z,10.87
2019-05-21T01:24:41.410Z,11.47
2019-05-21T01:27:11.237Z,12.17
2019-05-21T01:29:40.971Z,11.90
2019-05-21T01:32:10.857Z,12.40
2019-05-21T01:34:40.567Z,11.43
2019-05-21T01:37:10.383Z,13.27
2019-05-21T01:39:40.129Z,12.87
2019-05-21T01:42:10.030Z,12.60
2019-05-21T01:44:39.778Z,12.80
2019-05-21T01:47:09.634Z,14.47
2019-05-21T01:49:39.387Z,14.03
2019-05-21T01:52:09.227Z,14.20
2019-05-21T01:54:39.020Z,15.20
2019-05-21T01:57:08.856Z,14.63
2019-05-21T01:59:38.611Z,14.47
2019-05-21T02:02:08.384Z,16.00
2019-05-21T02:04:38.222Z,15.47
2019-05-21T02:07:07.986Z,14.93
2019-05-21T02:09:51.816Z,15.27
2019-05-21T02:12:21.624Z,15.97
2019-05-21T02:14:51.514Z,17.10
2019-05-21T02:17:21.361Z,15.63
2019-05-21T02:19:51.105Z,17.00
2019-05-21T02:22:20.922Z,16.53
2019-05-21T02:24:50.807Z,17.50
2019-05-21T02:27:20.545Z,17.97
2019-05-21T02:29:50.557Z,18.10
2019-05-21T02:32:20.375Z,17.77
2019-05-21T02:34:50.284Z,16.67
2019-05-21T02:37:20.110Z,16.80
2019-05-21T02:39:49.858Z,17.77
2019-05-21T02:42:19.699Z,19.17
2019-05-21T02:44:53.712Z,18.70
2019-05-21T02:47:21.223Z,17.80
2019-05-21T02:49:50.961Z,19.10
2019-05-21T02:52:20.801Z,19.70
2019-05-21T02:54:50.697Z,18.50
2019-05-21T02:57:20.537Z,20.20
2019-05-21T02:59:51.935Z,20.97
2019-05-21T03:02:23.342Z,19.57
2019-05-21T03:04:53.155Z,20.27
2019-05-21T03:07:25.578Z,19.53
2019-05-21T03:09:54.475Z,21.30
2019-05-21T03:12:24.189Z,20.23
2019-05-21T03:14:53.870Z,21.07
2019-05-21T03:17:23.647Z,20.27
2019-05-21T03:19:53.405Z,20.43
2019-05-21T03:22:23.213Z,22.80
2019-05-21T03:24:52.961Z,21.63
2019-05-21T03:27:22.713Z,22.07
2019-05-21T03:29:52.457Z,22.20
2019-05-21T03:32:22.363Z,22.50
2019-05-21T03:34:52.191Z,22.73
2019-05-21T03:37:21.960Z,23.07
2019-05-21T03:39:51.785Z,23.03
2019-05-21T03:42:21.745Z,23.33
2019-05-21T03:44:59.866Z,24.13
2019-05-21T03:47:23.065Z,23.73
2019-05-21T03:49:53.566Z,23.37
2019-05-21T03:52:23.445Z,24.63
2019-05-21T03:54:53.264Z,23.37
2019-05-21T03:57:23.978Z,23.37
2019-05-21T03:59:53.807Z,22.90
2019-05-21T04:02:23.546Z,23.73
2019-05-21T04:04:53.309Z,22.77
2019-05-21T04:07:23.098Z,22.93
2019-05-21T04:09:52.933Z,24.30
2019-05-21T04:12:22.969Z,22.33
2019-05-21T04:14:54.740Z,23.73
2019-05-21T04:17:42.620Z,23.23
2019-05-21T04:20:12.807Z,24.07
2019-05-21T04:22:54.368Z,24.50
2019-05-21T04:25:24.232Z,25.33
2019-05-21T04:27:54.078Z,23.50
2019-05-21T04:30:23.961Z,23.50
2019-05-21T04:32:53.735Z,25.23
2019-05-21T04:35:23.507Z,23.53
2019-05-21T04:37:53.270Z,25.07
2019-05-21T04:40:23.100Z,22.73
2019-05-21T04:42:52.855Z,23.10
2019-05-21T04:45:22.687Z,23.57
2019-05-21T04:47:52.446Z,22.37
2019-05-21T04:50:22.318Z,21.73
2019-05-21T04:52:58.956Z,20.83
2019-05-21T04:55:28.700Z,21.17
2019-05-21T04:57:58.520Z,20.17
2019-05-21T05:00:28.426Z,19.50
2019-05-21T05:02:58.387Z,19.73
2019-05-21T05:05:28.298Z,19.60
2019-05-21T05:07:58.214Z,20.17
2019-05-21T05:10:28.166Z,18.43
2019-05-21T05:12:57.995Z,18.93
2019-05-21T05:15:27.787Z,17.47
2019-05-21T05:17:57.633Z,17.97
2019-05-21T05:20:27.533Z,19.07
2019-05-21T05:22:57.360Z,18.43
2019-05-21T05:25:27.156Z,16.40
2019-05-21T05:27:56.980Z,17.23
2019-05-21T05:30:26.791Z,15.43
2019-05-21T05:32:56.488Z,16.00
2019-05-21T05:35:26.181Z,16.03
2019-05-21T05:37:55.985Z,17.13
2019-05-21T05:40:28.272Z,15.80
2019-05-21T05:42:58.418Z,15.13
2019-05-21T05:45:28.596Z,15.50
2019-05-21T05:47:58.728Z,16.37
2019-05-21T05:50:37.869Z,16.47
2019-05-21T05:53:07.658Z,15.50
2019-05-21T05:55:37.323Z,14.93
2019-05-21T05:58:07.072Z,15.13
2019-05-21T06:00:36.885Z,15.90
2019-05-21T06:03:06.664Z,14.37
2019-05-21T06:05:36.587Z,13.87
2019-05-21T06:08:06.326Z,14.40
2019-05-21T06:10:39.859Z,14.73
2019-05-21T06:13:07.623Z,14.33
2019-05-21T06:15:37.386Z,13.73
2019-05-21T06:18:07.266Z,12.73
2019-05-21T06:20:36.975Z,13.37
2019-05-21T06:23:06.720Z,14.30
2019-05-21T06:25:36.508Z,13.73
2019-05-21T06:28:06.188Z,13.93
2019-05-21T06:30:35.898Z,14.00
2019-05-21T06:33:05.743Z,15.47
2019-05-21T06:35:35.469Z,14.63
2019-05-21T06:38:17.349Z,14.77
2019-05-21T06:40:38.566Z,15.20
2019-05-21T06:43:08.435Z,15.50
2019-05-21T06:45:38.202Z,16.10
2019-05-21T06:48:07.958Z,15.83
2019-05-21T06:50:37.963Z,16.87
2019-05-21T06:53:08.190Z,16.03
2019-05-21T06:55:37.937Z,15.43
2019-05-21T06:58:07.746Z,15.33
2019-05-21T07:00:37.470Z,16.50
2019-05-21T07:03:07.248Z,16.80
2019-05-21T07:05:36.962Z,15.73
2019-05-21T07:08:06.722Z,15.40
2019-05-21T07:10:36.445Z,16.47
2019-05-21T07:13:06.194Z,16.40
2019-05-21T07:15:35.906Z,15.80
2019-05-21T07:18:05.784Z,16.07
2019-05-21T07:20:35.498Z,16.90
2019-05-21T07:23:06.346Z,16.80
2019-05-21T07:25:36.162Z,16.63
2019-05-21T07:28:05.952Z,15.20
2019-05-21T07:30:35.807Z,15.63
2019-05-21T07:33:06.266Z,16.13
2019-05-21T07:35:36.414Z,16.07
2019-05-21T07:38:06.179Z,15.23
2019-05-21T07:40:35.902Z,15.30
2019-05-21T07:43:05.619Z,15.83
2019-05-21T07:45:35.458Z,14.87
2019-05-21T07:48:05.298Z,14.33
2019-05-21T07:50:35.079Z,14.60
2019-05-21T07:53:05.431Z,14.43
2019-05-21T07:55:35.156Z,13.23
2019-05-21T07:58:04.925Z,13.73
2019-05-21T08:00:34.781Z,13.97
2019-05-21T08:03:04.509Z,13.73
2019-05-21T08:05:34.251Z,14.40
2019-05-21T08:08:04.191Z,13.83
2019-05-21T08:10:33.964Z,14.20
2019-05-21T08:13:03.747Z,14.10
2019-05-21T08:15:33.422Z,14.53
2019-05-21T08:18:03.218Z,14.20
2019-05-21T08:20:32.898Z,13.60
2019-05-21T08:23:02.695Z,15.00
2019-05-21T08:25:32.616Z,15.50
2019-05-21T08:28:02.350Z,15.13
2019-05-21T08:30:32.030Z,14.50
2019-05-21T08:33:01.919Z,15.80
2019-05-21T08:35:31.674Z,16.73
2019-05-21T08:38:01.457Z,14.33
2019-05-21T08:40:31.372Z,14.53
2019-05-21T08:43:01.402Z,15.17
2019-05-21T08:45:31.157Z,15.40
2019-05-21T08:48:00.952Z,15.80
2019-05-21T08:50:30.795Z,15.13
2019-05-21T08:53:03.224Z,15.23
2019-05-21T08:55:32.153Z,15.37
2019-05-21T08:58:06.847Z,15.27
2019-05-21T09:00:33.664Z,16.00
2019-05-21T09:03:03.534Z,16.50
2019-05-21T09:05:33.349Z,15.33
2019-05-21T09:08:03.102Z,15.03
2019-05-21T09:10:32.848Z,14.57
2019-05-21T09:13:02.697Z,14.87
2019-05-21T09:15:32.424Z,14.80
2019-05-21T09:18:02.211Z,14.63
2019-05-21T09:20:32.149Z,13.53
2019-05-21T09:23:01.904Z,13.33
2019-05-21T09:25:31.800Z,14.03
2019-05-21T09:28:01.622Z,13.93
2019-05-21T09:30:31.416Z,14.17
2019-05-21T09:33:02.649Z,12.90
2019-05-21T09:35:32.406Z,13.43
2019-05-21T09:38:02.218Z,13.93
2019-05-21T09:40:32.447Z,14.90
2019-05-21T09:43:02.357Z,14.73
2019-05-21T09:45:32.139Z,14.67
2019-05-21T09:48:02.038Z,15.17
2019-05-21T09:50:32.010Z,13.97
2019-05-21T09:53:01.892Z,14.93
2019-05-21T09:55:33.721Z,13.83
2019-05-21T09:58:13.836Z,14.40
2019-05-21T10:00:54.572Z,13.87
2019-05-21T10:03:31.882Z,14.37
2019-05-21T10:06:01.752Z,14.33
2019-05-21T10:08:31.453Z,14.47
2019-05-21T10:11:01.437Z,15.43
2019-05-21T10:13:31.229Z,13.50
2019-05-21T10:16:01.654Z,14.77
2019-05-21T10:18:31.532Z,13.97
2019-05-21T10:21:01.367Z,14.33
2019-05-21T10:23:31.235Z,14.90
2019-05-21T10:26:01.021Z,14.33
2019-05-21T10:28:30.772Z,14.30
2019-05-21T10:31:00.805Z,15.90
2019-05-21T10:33:30.622Z,14.87
2019-05-21T10:36:00.420Z,16.53
2019-05-21T10:38:30.247Z,15.20
2019-05-21T10:41:00.061Z,15.90
2019-05-21T10:43:29.929Z,15.23
2019-05-21T10:45:59.664Z,16.67
2019-05-21T10:48:29.467Z,15.60
2019-05-21T10:50:59.341Z,15.33
2019-05-21T10:53:29.284Z,16.23
2019-05-21T10:55:59.010Z,15.30
2019-05-21T10:58:28.814Z,15.87
2019-05-21T11:01:00.294Z,16.80
2019-05-21T11:03:31.675Z,16.77
2019-05-21T11:06:10.002Z,16.30
2019-05-21T11:08:33.171Z,16.00
2019-05-21T11:11:03.069Z,16.93
2019-05-21T11:13:32.905Z,16.57
2019-05-21T11:16:02.943Z,16.97
2019-05-21T11:18:32.721Z,16.33
2019-05-21T11:21:02.520Z,16.77
2019-05-21T11:23:32.273Z,16.10
2019-05-21T11:26:02.242Z,15.87
2019-05-21T11:28:32.030Z,16.07
2019-05-21T11:31:01.877Z,17.10
2019-05-21T11:33:31.643Z,17.40
2019-05-21T11:36:01.396Z,16.23
2019-05-21T11:38:39.486Z,17.57
2019-05-21T11:41:02.655Z,17.50
2019-05-21T11:43:32.406Z,16.33
2019-05-21T11:46:03.174Z,17.60
2019-05-21T11:48:33.370Z,17.37
2019-05-21T11:51:03.341Z,16.77
2019-05-21T11:53:33.289Z,17.40
2019-05-21T11:56:03.060Z,17.67
2019-05-21T11:58:39.390Z,17.37
2019-05-21T12:01:04.718Z,18.03
2019-05-21T12:03:34.661Z,16.47
2019-05-21T12:06:04.638Z,16.37
2019-05-21T12:08:34.502Z,17.53
2019-05-21T12:11:04.273Z,17.23
2019-05-21T12:13:34.066Z,17.60
2019-05-21T12:16:03.879Z,16.90
2019-05-21T12:18:33.585Z,16.90
2019-05-21T12:21:03.426Z,16.90
2019-05-21T12:23:33.127Z,17.67
2019-05-21T12:26:02.977Z,17.20
2019-05-21T12:28:32.705Z,17.73
2019-05-21T12:31:02.448Z,18.10
2019-05-21T12:33:35.007Z,18.93
2019-05-21T12:36:04.352Z,19.63
2019-05-21T12:38:34.119Z,19.03
2019-05-21T12:41:03.925Z,19.67
2019-05-21T12:43:33.773Z,20.80
2019-05-21T12:46:03.692Z,20.97
2019-05-21T12:48:33.586Z,20.47
2019-05-21T12:51:03.432Z,20.63
2019-05-21T12:53:33.215Z,22.20
2019-05-21T12:56:03.070Z,22.37
2019-05-21T12:58:32.845Z,22.80
2019-05-21T13:01:02.721Z,22.07
2019-05-21T13:03:32.511Z,22.13
2019-05-21T13:06:02.675Z,21.80
2019-05-21T13:08:32.712Z,22.50
2019-05-21T13:11:02.518Z,21.97
2019-05-21T13:13:32.282Z,22.00
2019-05-21T13:16:02.022Z,23.43
2019-05-21T13:18:31.802Z,22.47
2019-05-21T13:21:01.569Z,22.17
2019-05-21T13:23:31.474Z,22.67
2019-05-21T13:26:01.221Z,23.03
2019-05-21T13:28:31.039Z,22.13
2019-05-21T13:31:00.962Z,21.73
2019-05-21T13:33:30.764Z,22.00
2019-05-21T13:36:00.621Z,21.33
2019-05-21T13:38:30.365Z,22.00
2019-05-21T13:41:00.543Z,22.70
2019-05-21T13:43:30.343Z,21.90
2019-05-21T13:46:00.110Z,21.40
2019-05-21T13:48:29.919Z,21.13
2019-05-21T13:50:59.681Z,21.80
2019-05-21T13:53:29.542Z,21.03
2019-05-21T13:55:59.385Z,22.30
2019-05-21T13:58:29.151Z,23.00
2019-05-21T14:01:00.294Z,23.23
2019-05-21T14:03:30.188Z,22.60
2019-05-21T14:06:00.109Z,23.77
2019-05-21T14:08:29.974Z,24.33
2019-05-21T14:11:00.032Z,23.73
2019-05-21T14:13:29.821Z,22.53
2019-05-21T14:15:59.676Z,22.53
2019-05-21T14:18:29.519Z,23.03
2019-05-21T14:20:59.514Z,24.37
2019-05-21T14:23:29.288Z,24.03
2019-05-21T14:25:59.123Z,22.33
2019-05-21T14:28:28.956Z,23.30
2019-05-21T14:30:58.959Z,23.00
2019-05-21T14:33:28.872Z,22.17
2019-05-21T14:35:58.652Z,23.00
2019-05-21T14:38:28.591Z,23.37
2019-05-21T14:40:58.554Z,22.53
2019-05-21T14:43:28.378Z,22.37
2019-05-21T14:45:58.164Z,23.87
2019-05-21T14:48:28.023Z,23.03
2019-05-21T14:50:57.778Z,23.33
2019-05-21T14:53:27.656Z,24.23
2019-05-21T14:55:57.393Z,24.40
2019-05-21T14:58:27.152Z,22.07
2019-05-21T15:00:57.068Z,20.93
2019-05-21T15:03:29.504Z,21.53
2019-05-21T15:05:58.492Z,21.70
2019-05-21T15:08:28.238Z,23.57
2019-05-21T15:10:58.013Z,24.27
2019-05-21T15:13:27.740Z,22.33
2019-05-21T15:15:57.498Z,24.90
2019-05-21T15:18:27.293Z,25.20
2019-05-21T15:20:59.207Z,24.13
2019-05-21T15:23:29.228Z,23.00
2019-05-21T15:25:59.013Z,23.67
2019-05-21T15:28:29.008Z,36.77
2019-05-21T15:30:58.815Z,30.43
2019-05-21T15:33:28.609Z,28.73
2019-05-21T15:35:58.378Z,26.33
2019-05-21T15:38:28.179Z,23.53
2019-05-21T15:41:09.655Z,24.97
2019-05-21T15:43:29.706Z,25.07
2019-05-21T15:45:59.764Z,24.33
2019-05-21T15:48:29.853Z,25.13
2019-05-21T15:50:59.611Z,24.13
2019-05-21T15:53:31.107Z,23.90
2019-05-21T15:56:00.828Z,25.47
2019-05-21T15:58:30.693Z,25.73
2019-05-21T16:01:00.548Z,24.40
2019-05-21T16:03:30.352Z,26.83
2019-05-21T16:06:00.299Z,27.00
2019-05-21T16:08:30.178Z,25.20
2019-05-21T16:11:00.004Z,28.53
2019-05-21T16:13:29.832Z,30.37
2019-05-21T16:15:59.775Z,33.37
2019-05-21T16:18:29.598Z,29.27
2019-05-21T16:20:59.481Z,27.03
2019-05-21T16:23:29.424Z,29.53
2019-05-21T16:25:59.410Z,28.13
2019-05-21T16:28:29.195Z,29.83
2019-05-21T16:30:59.125Z,29.50
2019-05-21T16:33:29.064Z,28.80
2019-05-21T16:35:58.823Z,26.87
2019-05-21T16:38:28.725Z,27.87
2019-05-21T16:40:58.619Z,27.43
2019-05-21T16:43:28.381Z,26.43
2019-05-21T16:45:58.324Z,27.10
2019-05-21T16:48:29.482Z,27.90
2019-05-21T16:50:59.794Z,26.40
2019-05-21T16:53:33.278Z,28.17
2019-05-21T16:56:03.289Z,27.27
2019-05-21T16:58:33.362Z,27.53
2019-05-21T17:01:04.879Z,28.87
2019-05-21T17:03:36.600Z,27.77
2019-05-21T17:06:06.803Z,28.17
2019-05-21T17:08:36.624Z,30.37
2019-05-21T17:11:06.608Z,28.20
2019-05-21T17:13:36.507Z,28.33
2019-05-21T17:16:06.364Z,29.27
2019-05-21T17:18:36.114Z,29.07
2019-05-21T17:21:06.022Z,28.23
2019-05-21T17:23:36.022Z,26.87
2019-05-21T17:26:06.135Z,27.17
2019-05-21T17:28:35.807Z,27.03
2019-05-21T17:31:13.631Z,27.33
2019-05-21T17:36:14.537Z,25.50
2019-05-21T17:39:52.372Z,26.13
2019-05-21T17:42:42.016Z,26.23
2019-05-21T17:45:39.224Z,25.60
2019-05-21T17:48:10.892Z,26.57
2019-05-21T17:50:40.572Z,27.00
2019-05-21T17:53:11.265Z,28.20
2019-05-21T17:55:41.015Z,29.03
2019-05-21T17:58:10.808Z,26.17
2019-05-21T18:00:42.495Z,26.77
2019-05-21T18:03:12.742Z,25.27
2019-05-21T18:05:42.690Z,23.77
2019-05-21T18:08:12.479Z,22.80
2019-05-21T18:10:43.077Z,22.07
2019-05-21T18:13:13.307Z,22.83
2019-05-21T18:15:43.239Z,21.20
2019-05-21T18:18:13.054Z,23.40
2019-05-21T18:20:42.821Z,21.70
2019-05-21T18:23:12.555Z,23.00
2019-05-21T18:25:42.333Z,21.10
2019-05-21T18:28:12.040Z,20.37
2019-05-21T18:30:41.986Z,20.13
2019-05-21T18:33:11.787Z,19.40
2019-05-21T18:35:41.571Z,20.43
2019-05-21T18:38:11.297Z,20.43
2019-05-21T18:40:41.087Z,19.70
2019-05-21T18:43:10.847Z,20.30
2019-05-21T18:45:40.641Z,20.13
2019-05-21T18:48:10.401Z,19.23
2019-05-21T18:50:40.252Z,18.60
2019-05-21T18:53:10.297Z,18.33
2019-05-21T18:55:40.211Z,18.27
2019-05-21T18:58:09.989Z,19.33
2019-05-21T19:00:39.785Z,18.10
2019-05-21T19:03:09.727Z,17.47
2019-05-21T19:05:39.534Z,17.43
2019-05-21T19:08:09.244Z,16.33
2019-05-21T19:10:38.933Z,16.17
2019-05-21T19:13:08.718Z,16.83
2019-05-21T19:15:38.505Z,16.73
2019-05-21T19:18:08.258Z,16.00
2019-05-21T19:20:38.039Z,16.70
2019-05-21T19:23:08.106Z,16.67
2019-05-21T19:25:37.884Z,16.00
2019-05-21T19:28:07.624Z,15.83
2019-05-21T19:30:37.551Z,15.50
2019-05-21T19:33:07.646Z,15.50
2019-05-21T19:35:37.510Z,14.73
2019-05-21T19:38:07.214Z,13.40
2019-05-21T19:40:37.064Z,13.90
2019-05-21T19:43:06.735Z,12.77
2019-05-21T19:45:36.449Z,12.67
2019-05-21T19:48:06.198Z,10.83
2019-05-21T19:50:36.008Z,10.20
2019-05-21T19:53:05.937Z,9.10
2019-05-21T19:55:37.248Z,9.13
2019-05-21T19:58:07.000Z,7.50
2019-05-21T20:00:38.514Z,7.03
2019-05-21T20:03:09.203Z,6.63
2019-05-21T20:05:38.879Z,6.93
2019-05-21T20:08:09.009Z,6.70
2019-05-21T20:10:39.665Z,6.50
2019-05-21T20:13:09.467Z,5.70
2019-05-21T20:15:39.422Z,5.13
2019-05-21T20:18:09.576Z,4.23
2019-05-21T20:20:40.339Z,4.43
2019-05-21T20:23:10.630Z,4.40
2019-05-21T20:25:55.251Z,5.20
2019-05-21T20:28:13.197Z,4.20
2019-05-21T20:30:44.755Z,4.03
2019-05-21T20:33:15.930Z,3.90
2019-05-21T20:35:47.399Z,3.70
2019-05-21T20:38:18.475Z,3.67
2019-05-21T20:40:48.332Z,3.60
2019-05-21T20:43:18.328Z,3.70
2019-05-21T20:45:49.441Z,4.13
2019-05-21T20:48:21.427Z,4.10
2019-05-21T20:50:51.453Z,3.70
2019-05-21T20:53:22.101Z,3.90
2019-05-21T20:55:51.915Z,3.67
2019-05-21T20:58:22.875Z,3.70
2019-05-21T21:00:54.297Z,4.00
2019-05-21T21:03:24.656Z,3.70
2019-05-21T21:05:54.734Z,4.00
2019-05-21T21:08:27.857Z,4.00
2019-05-21T21:10:57.696Z,3.87
2019-05-21T21:13:28.377Z,3.50
2019-05-21T21:15:58.588Z,4.00
2019-05-21T21:18:29.155Z,4.00
2019-05-21T21:20:59.024Z,4.43
2019-05-21T21:23:30.294Z,4.10
2019-05-21T21:26:00.243Z,4.80
2019-05-21T21:28:30.134Z,4.70
2019-05-21T21:30:59.980Z,4.40
2019-05-21T21:33:30.649Z,4.90
2019-05-21T21:36:00.406Z,4.13
2019-05-21T21:38:31.929Z,4.80
2019-05-21T21:41:01.622Z,4.67
2019-05-21T21:43:31.522Z,4.43
2019-05-21T21:46:01.478Z,5.00
2019-05-21T21:48:32.105Z,5.00
2019-05-21T21:51:02.627Z,4.97
2019-05-21T21:53:33.369Z,4.83
2019-05-21T21:56:03.081Z,5.23
2019-05-21T21:58:32.757Z,4.30
2019-05-21T22:01:28.314Z,4.77
2019-05-21T22:04:01.726Z,4.73
2019-05-21T22:06:35.542Z,4.37
2019-05-21T22:09:07.896Z,4.47
2019-05-21T22:11:38.407Z,4.77
2019-05-21T22:14:08.335Z,4.80
2019-05-21T22:16:38.035Z,4.73
2019-05-21T22:19:08.417Z,5.43
2019-05-21T22:21:38.151Z,4.73
2019-05-21T22:24:08.178Z,5.50
2019-05-21T22:26:37.951Z,5.20
2019-05-21T22:29:07.703Z,6.20
2019-05-21T22:31:37.743Z,5.80
2019-05-21T22:34:07.559Z,6.07
2019-05-21T22:36:39.494Z,5.80
2019-05-21T22:39:11.283Z,5.80
2019-05-21T22:41:41.049Z,5.53
2019-05-21T22:44:10.828Z,5.53
2019-05-21T22:46:40.491Z,5.77
2019-05-21T22:49:11.105Z,5.47
2019-05-21T22:51:40.836Z,5.83
2019-05-21T22:54:40.911Z,5.80
2019-05-21T22:57:10.574Z,5.07
2019-05-21T22:59:40.275Z,5.60
2019-05-21T23:02:11.916Z,5.20
2019-05-21T23:04:41.769Z,5.20
2019-05-21T23:07:12.102Z,4.97
2019-05-21T23:09:41.882Z,5.20
2019-05-21T23:12:12.084Z,5.30
2019-05-21T23:14:42.095Z,5.27
2019-05-21T23:17:11.946Z,5.20
2019-05-21T23:19:42.121Z,5.63
2019-05-21T23:22:14.189Z,5.33
2019-05-21T23:24:44.025Z,5.13
2019-05-21T23:27:15.346Z,5.53
2019-05-21T23:29:45.125Z,5.10
2019-05-21T23:32:15.277Z,5.50
2019-05-21T23:34:46.360Z,4.93
2019-05-21T23:37:20.555Z,5.33
2019-05-21T23:39:53.144Z,4.93
2019-05-21T23:42:29.432Z,5.20
2019-05-21T23:44:54.915Z,5.20
2019-05-21T23:47:50.747Z,5.13
2019-05-21T23:50:20.645Z,5.37
2019-05-21T23:52:52.702Z,6.07
2019-05-21T23:55:22.679Z,6.00
2019-05-21T23:57:52.694Z,5.57
